Aeroporto :
LOGIN :

Iscrizione | Disclaimer

   EN    FR    IT 

 










Sommario :    VFR   VFR Marginale   IFR   IFR Intensivo   IFR Molto Intensivo
Visibilità : 
Base nubi : 
>= 8 km
>= 3000ft
5 / 8 km
1000 / 3000 ft
1500m / 5 km
500 / 1000 ft
800 / 1500m
200 / 500 ft
< 800m
< 200 ft
Simboli :   Temporali  Nebbia  Neve Forte  Precipitazioni Forti  Vento > 20 kt
SIGMETs :   Varie  Temporali  Ghiacco  Turbolenza  Onda orograficha  Ceneri Vulcaniche







- Altitudine del aeroporto : 215 ft
- Codice IATA : ABZ
- Carte del aeroporto


EGPD - Aberdeen / Dyce

ULTIMO METAR :
  • 180620Z AUTO 20018KT 9999 NCD 13/10 Q0990 NOSIG

METARs OBSOLETI :
  • 180550Z AUTO 20015KT 9999 NCD 13/09 Q0990 NOSIG
  • 180520Z AUTO 20017KT 9999 NCD 13/09 Q0990 NOSIG
  • 180450Z AUTO 20017KT 9999 NCD 13/09 Q0991 NOSIG
  • 180420Z AUTO 20013KT 9999 FEW024 13/09 Q0991
  • 180350Z AUTO 20007KT 160V230 9999 SCT023 13/09 Q0991 NOSIG

TAF TAF EGPD
Valido dal 18 a 06 ore il 19 a 06 ore UTC


180500Z 1806/1906 19009KT 9999 FEW045
PROB40
TEMPO 1806/1810 19015G25KT BKN014
TEMPO 1810/1817 23015G25KT 6000 SHRA
Nessun NOTAM noto per questo aeroporto.



MetMap, La meteo Aeronautica in un colpo d'occhio ! - Copyright ORBIFLY Dicembre 2007 - Disclaimer

ORBIFLY MET'MAP TEAM :

Programmazione e sviluppo : Alexandra Zaïnal
Concezione e sviluppo : Baudouin d'Aumeries
Co-Programmazione e sviluppo : Marc-Olivier Méhu
Supporto tecnico e logistico : Manuel Goepfert
Aiuto per la traduzione : Arnaldo La Scala

Contatto : metmap@orbifly.com




FONTI E CREDITI :

   NOAA